sensor_id;sensor_type;location;lat;lon;timestamp;pressure;altitude;pressure_sealevel;temperature
11424;BMP180;5768;51.476;7.210;2023-02-07T00:02:22;102538.00;;;5.70
11424;BMP180;5768;51.476;7.210;2023-02-07T00:07:26;102553.00;;;5.90
11424;BMP180;5768;51.476;7.210;2023-02-07T00:12:28;102544.00;;;6.00
11424;BMP180;5768;51.476;7.210;2023-02-07T00:17:30;102545.00;;;6.20
11424;BMP180;5768;51.476;7.210;2023-02-07T00:22:34;102551.00;;;6.20
11424;BMP180;5768;51.476;7.210;2023-02-07T00:27:36;102541.00;;;6.20
11424;BMP180;5768;51.476;7.210;2023-02-07T00:32:38;102538.00;;;6.20
11424;BMP180;5768;51.476;7.210;2023-02-07T00:37:41;102525.00;;;6.20
11424;BMP180;5768;51.476;7.210;2023-02-07T00:42:43;102517.00;;;6.20
11424;BMP180;5768;51.476;7.210;2023-02-07T00:47:45;102518.00;;;6.20
11424;BMP180;5768;51.476;7.210;2023-02-07T00:52:49;102513.00;;;6.20
11424;BMP180;5768;51.476;7.210;2023-02-07T00:57:51;102510.00;;;6.20
11424;BMP180;5768;51.476;7.210;2023-02-07T01:02:53;102525.00;;;6.00
11424;BMP180;5768;51.476;7.210;2023-02-07T01:07:57;102528.00;;;5.90
11424;BMP180;5768;51.476;7.210;2023-02-07T01:12:59;102536.00;;;5.80
11424;BMP180;5768;51.476;7.210;2023-02-07T01:18:01;102530.00;;;5.60
11424;BMP180;5768;51.476;7.210;2023-02-07T01:23:06;102534.00;;;5.50
11424;BMP180;5768;51.476;7.210;2023-02-07T01:28:08;102520.00;;;5.60
11424;BMP180;5768;51.476;7.210;2023-02-07T01:33:11;102527.00;;;5.50
11424;BMP180;5768;51.476;7.210;2023-02-07T01:38:15;102533.00;;;5.40
11424;BMP180;5768;51.476;7.210;2023-02-07T01:43:21;102522.00;;;5.30
11424;BMP180;5768;51.476;7.210;2023-02-07T01:48:30;102536.00;;;5.10
11424;BMP180;5768;51.476;7.210;2023-02-07T01:53:37;102528.00;;;5.00
11424;BMP180;5768;51.476;7.210;2023-02-07T01:58:40;102525.00;;;4.90
11424;BMP180;5768;51.476;7.210;2023-02-07T02:03:46;102526.00;;;4.80
11424;BMP180;5768;51.476;7.210;2023-02-07T02:08:56;102545.00;;;4.70
11424;BMP180;5768;51.476;7.210;2023-02-07T02:14:12;102537.00;;;4.70
11424;BMP180;5768;51.476;7.210;2023-02-07T02:20:18;102534.00;;;4.70
11424;BMP180;5768;51.476;7.210;2023-02-07T02:26:08;102530.00;;;4.70
11424;BMP180;5768;51.476;7.210;2023-02-07T02:31:41;102530.00;;;4.50
11424;BMP180;5768;51.476;7.210;2023-02-07T02:37:00;102551.00;;;4.40
11424;BMP180;5768;51.476;7.210;2023-02-07T02:42:10;102549.00;;;4.50
11424;BMP180;5768;51.476;7.210;2023-02-07T02:47:18;102551.00;;;4.70
11424;BMP180;5768;51.476;7.210;2023-02-07T02:52:22;102534.00;;;4.80
11424;BMP180;5768;51.476;7.210;2023-02-07T02:57:51;102530.00;;;4.80
11424;BMP180;5768;51.476;7.210;2023-02-07T03:03:17;102514.00;;;4.80
11424;BMP180;5768;51.476;7.210;2023-02-07T03:08:37;102530.00;;;4.90
11424;BMP180;5768;51.476;7.210;2023-02-07T03:13:57;102520.00;;;4.90
11424;BMP180;5768;51.476;7.210;2023-02-07T03:19:06;102527.00;;;5.00
11424;BMP180;5768;51.476;7.210;2023-02-07T03:24:16;102513.00;;;4.90
11424;BMP180;5768;51.476;7.210;2023-02-07T03:29:21;102522.00;;;5.00
11424;BMP180;5768;51.476;7.210;2023-02-07T03:34:33;102498.00;;;4.90
11424;BMP180;5768;51.476;7.210;2023-02-07T03:39:38;102513.00;;;4.70
11424;BMP180;5768;51.476;7.210;2023-02-07T03:44:42;102523.00;;;4.50
11424;BMP180;5768;51.476;7.210;2023-02-07T03:49:45;102528.00;;;4.20
11424;BMP180;5768;51.476;7.210;2023-02-07T03:54:49;102524.00;;;4.00
11424;BMP180;5768;51.476;7.210;2023-02-07T03:59:51;102531.00;;;3.90
11424;BMP180;5768;51.476;7.210;2023-02-07T04:04:53;102522.00;;;3.80
11424;BMP180;5768;51.476;7.210;2023-02-07T04:09:57;102520.00;;;3.70
11424;BMP180;5768;51.476;7.210;2023-02-07T04:15:00;102516.00;;;3.70
11424;BMP180;5768;51.476;7.210;2023-02-07T04:20:03;102505.00;;;3.60
11424;BMP180;5768;51.476;7.210;2023-02-07T04:25:07;102513.00;;;3.60
11424;BMP180;5768;51.476;7.210;2023-02-07T04:30:11;102499.00;;;3.60
11424;BMP180;5768;51.476;7.210;2023-02-07T04:35:13;102497.00;;;3.50
11424;BMP180;5768;51.476;7.210;2023-02-07T04:40:17;102496.00;;;3.50
11424;BMP180;5768;51.476;7.210;2023-02-07T04:45:19;102500.00;;;3.50
11424;BMP180;5768;51.476;7.210;2023-02-07T04:50:21;102482.00;;;3.40
11424;BMP180;5768;51.476;7.210;2023-02-07T04:55:25;102476.00;;;3.40
11424;BMP180;5768;51.476;7.210;2023-02-07T05:00:27;102472.00;;;3.30
11424;BMP180;5768;51.476;7.210;2023-02-07T05:05:29;102469.00;;;3.30
11424;BMP180;5768;51.476;7.210;2023-02-07T05:10:33;102482.00;;;3.20
11424;BMP180;5768;51.476;7.210;2023-02-07T05:15:35;102487.00;;;3.20
11424;BMP180;5768;51.476;7.210;2023-02-07T05:20:37;102487.00;;;3.10
11424;BMP180;5768;51.476;7.210;2023-02-07T05:25:41;102479.00;;;3.10
11424;BMP180;5768;51.476;7.210;2023-02-07T05:30:44;102477.00;;;3.10
11424;BMP180;5768;51.476;7.210;2023-02-07T05:35:46;102481.00;;;3.10
11424;BMP180;5768;51.476;7.210;2023-02-07T05:40:50;102490.00;;;3.00
11424;BMP180;5768;51.476;7.210;2023-02-07T05:45:52;102495.00;;;3.00
11424;BMP180;5768;51.476;7.210;2023-02-07T05:50:54;102505.00;;;3.00
11424;BMP180;5768;51.476;7.210;2023-02-07T05:55:58;102515.00;;;2.90
11424;BMP180;5768;51.476;7.210;2023-02-07T06:01:00;102510.00;;;2.90
11424;BMP180;5768;51.476;7.210;2023-02-07T06:06:03;102527.00;;;2.90
11424;BMP180;5768;51.476;7.210;2023-02-07T06:11:07;102527.00;;;2.90
11424;BMP180;5768;51.476;7.210;2023-02-07T06:16:09;102519.00;;;2.80
11424;BMP180;5768;51.476;7.210;2023-02-07T06:21:11;102522.00;;;2.90
11424;BMP180;5768;51.476;7.210;2023-02-07T06:26:15;102527.00;;;2.90
11424;BMP180;5768;51.476;7.210;2023-02-07T06:31:17;102525.00;;;2.90
11424;BMP180;5768;51.476;7.210;2023-02-07T06:36:19;102527.00;;;2.90
11424;BMP180;5768;51.476;7.210;2023-02-07T06:41:22;102533.00;;;2.80
11424;BMP180;5768;51.476;7.210;2023-02-07T06:46:25;102531.00;;;2.80
11424;BMP180;5768;51.476;7.210;2023-02-07T06:51:27;102531.00;;;2.80
11424;BMP180;5768;51.476;7.210;2023-02-07T06:56:30;102549.00;;;2.80
11424;BMP180;5768;51.476;7.210;2023-02-07T07:01:33;102541.00;;;2.80
11424;BMP180;5768;51.476;7.210;2023-02-07T07:06:35;102550.00;;;2.80
11424;BMP180;5768;51.476;7.210;2023-02-07T07:11:39;102561.00;;;2.90
11424;BMP180;5768;51.476;7.210;2023-02-07T07:16:43;102563.00;;;2.90
11424;BMP180;5768;51.476;7.210;2023-02-07T07:21:46;102565.00;;;3.00
11424;BMP180;5768;51.476;7.210;2023-02-07T07:26:50;102570.00;;;3.00
11424;BMP180;5768;51.476;7.210;2023-02-07T07:31:52;102576.00;;;3.10
11424;BMP180;5768;51.476;7.210;2023-02-07T07:36:54;102557.00;;;3.10
11424;BMP180;5768;51.476;7.210;2023-02-07T07:41:58;102573.00;;;3.20
11424;BMP180;5768;51.476;7.210;2023-02-07T07:47:00;102578.00;;;3.20
11424;BMP180;5768;51.476;7.210;2023-02-07T07:52:03;102586.00;;;3.20
11424;BMP180;5768;51.476;7.210;2023-02-07T07:57:06;102574.00;;;3.30
11424;BMP180;5768;51.476;7.210;2023-02-07T08:02:14;102586.00;;;3.50
11424;BMP180;5768;51.476;7.210;2023-02-07T08:07:17;102593.00;;;3.50
11424;BMP180;5768;51.476;7.210;2023-02-07T08:12:21;102582.00;;;3.60
11424;BMP180;5768;51.476;7.210;2023-02-07T08:17:23;102579.00;;;3.70
11424;BMP180;5768;51.476;7.210;2023-02-07T08:22:25;102571.00;;;3.90
11424;BMP180;5768;51.476;7.210;2023-02-07T08:27:29;102595.00;;;4.00
11424;BMP180;5768;51.476;7.210;2023-02-07T08:32:31;102595.00;;;4.10
11424;BMP180;5768;51.476;7.210;2023-02-07T08:37:33;102598.00;;;4.20
11424;BMP180;5768;51.476;7.210;2023-02-07T08:42:37;102593.00;;;4.30
11424;BMP180;5768;51.476;7.210;2023-02-07T08:47:39;102594.00;;;4.50
11424;BMP180;5768;51.476;7.210;2023-02-07T08:52:42;102604.00;;;4.70
11424;BMP180;5768;51.476;7.210;2023-02-07T08:57:45;102599.00;;;4.80
11424;BMP180;5768;51.476;7.210;2023-02-07T09:02:48;102588.00;;;5.00
11424;BMP180;5768;51.476;7.210;2023-02-07T09:07:50;102606.00;;;5.10
11424;BMP180;5768;51.476;7.210;2023-02-07T09:12:53;102607.00;;;5.20
11424;BMP180;5768;51.476;7.210;2023-02-07T09:17:56;102608.00;;;5.40
11424;BMP180;5768;51.476;7.210;2023-02-07T09:22:58;102601.00;;;5.50
11424;BMP180;5768;51.476;7.210;2023-02-07T09:28:21;102600.00;;;5.60
11424;BMP180;5768;51.476;7.210;2023-02-07T09:33:24;102585.00;;;5.80
11424;BMP180;5768;51.476;7.210;2023-02-07T09:38:27;102591.00;;;5.90
11424;BMP180;5768;51.476;7.210;2023-02-07T09:43:38;102587.00;;;6.00
11424;BMP180;5768;51.476;7.210;2023-02-07T09:48:50;102600.00;;;6.10
11424;BMP180;5768;51.476;7.210;2023-02-07T09:53:57;102600.00;;;6.20
11424;BMP180;5768;51.476;7.210;2023-02-07T09:59:15;102613.00;;;6.20
11424;BMP180;5768;51.476;7.210;2023-02-07T10:04:34;102606.00;;;6.30
11424;BMP180;5768;51.476;7.210;2023-02-07T10:09:40;102598.00;;;6.40
11424;BMP180;5768;51.476;7.210;2023-02-07T10:15:07;102596.00;;;6.40
11424;BMP180;5768;51.476;7.210;2023-02-07T10:20:30;102592.00;;;6.50
11424;BMP180;5768;51.476;7.210;2023-02-07T10:25:46;102580.00;;;6.50
11424;BMP180;5768;51.476;7.210;2023-02-07T10:30:57;102587.00;;;6.60
11424;BMP180;5768;51.476;7.210;2023-02-07T10:36:05;102592.00;;;6.60
11424;BMP180;5768;51.476;7.210;2023-02-07T10:41:16;102597.00;;;6.70
11424;BMP180;5768;51.476;7.210;2023-02-07T10:46:22;102587.00;;;6.80
11424;BMP180;5768;51.476;7.210;2023-02-07T10:51:30;102587.00;;;6.90
11424;BMP180;5768;51.476;7.210;2023-02-07T10:56:39;102598.00;;;7.00
11424;BMP180;5768;51.476;7.210;2023-02-07T11:01:52;102605.00;;;7.10
11424;BMP180;5768;51.476;7.210;2023-02-07T11:07:00;102587.00;;;7.20
11424;BMP180;5768;51.476;7.210;2023-02-07T11:12:14;102592.00;;;7.30
11424;BMP180;5768;51.476;7.210;2023-02-07T11:17:20;102604.00;;;7.40
11424;BMP180;5768;51.476;7.210;2023-02-07T11:22:24;102609.00;;;7.60
11424;BMP180;5768;51.476;7.210;2023-02-07T11:27:36;102613.00;;;7.70
11424;BMP180;5768;51.476;7.210;2023-02-07T11:32:40;102604.00;;;7.80
11424;BMP180;5768;51.476;7.210;2023-02-07T11:37:47;102609.00;;;8.00
11424;BMP180;5768;51.476;7.210;2023-02-07T11:43:09;102600.00;;;8.30
11424;BMP180;5768;51.476;7.210;2023-02-07T11:48:19;102597.00;;;8.50
11424;BMP180;5768;51.476;7.210;2023-02-07T11:53:26;102602.00;;;8.70
11424;BMP180;5768;51.476;7.210;2023-02-07T11:58:33;102599.00;;;9.00
11424;BMP180;5768;51.476;7.210;2023-02-07T12:03:45;102589.00;;;9.20
11424;BMP180;5768;51.476;7.210;2023-02-07T12:08:49;102591.00;;;9.50
11424;BMP180;5768;51.476;7.210;2023-02-07T12:13:57;102588.00;;;9.70
11424;BMP180;5768;51.476;7.210;2023-02-07T12:19:09;102589.00;;;9.90
11424;BMP180;5768;51.476;7.210;2023-02-07T12:24:19;102587.00;;;10.10
11424;BMP180;5768;51.476;7.210;2023-02-07T12:29:37;102583.00;;;10.40
11424;BMP180;5768;51.476;7.210;2023-02-07T12:34:53;102578.00;;;10.70
11424;BMP180;5768;51.476;7.210;2023-02-07T12:40:07;102583.00;;;11.00
11424;BMP180;5768;51.476;7.210;2023-02-07T12:45:16;102572.00;;;11.30
11424;BMP180;5768;51.476;7.210;2023-02-07T12:50:52;102572.00;;;11.70
11424;BMP180;5768;51.476;7.210;2023-02-07T12:56:13;102558.00;;;11.90
11424;BMP180;5768;51.476;7.210;2023-02-07T13:01:29;102549.00;;;12.40
11424;BMP180;5768;51.476;7.210;2023-02-07T13:06:42;102553.00;;;13.00
11424;BMP180;5768;51.476;7.210;2023-02-07T13:12:01;102550.00;;;13.80
11424;BMP180;5768;51.476;7.210;2023-02-07T13:17:39;102565.00;;;14.80
11424;BMP180;5768;51.476;7.210;2023-02-07T13:22:49;102570.00;;;15.60
11424;BMP180;5768;51.476;7.210;2023-02-07T13:27:58;102557.00;;;16.40
11424;BMP180;5768;51.476;7.210;2023-02-07T13:33:17;102557.00;;;17.10
11424;BMP180;5768;51.476;7.210;2023-02-07T13:38:39;102555.00;;;17.90
11424;BMP180;5768;51.476;7.210;2023-02-07T13:43:57;102563.00;;;18.50
11424;BMP180;5768;51.476;7.210;2023-02-07T13:49:11;102563.00;;;19.20
11424;BMP180;5768;51.476;7.210;2023-02-07T13:54:29;102555.00;;;19.90
11424;BMP180;5768;51.476;7.210;2023-02-07T13:59:37;102559.00;;;20.50
11424;BMP180;5768;51.476;7.210;2023-02-07T14:04:48;102562.00;;;21.00
11424;BMP180;5768;51.476;7.210;2023-02-07T14:09:52;102564.00;;;21.50
11424;BMP180;5768;51.476;7.210;2023-02-07T14:15:53;102557.00;;;21.80
11424;BMP180;5768;51.476;7.210;2023-02-07T14:21:00;102560.00;;;22.40
11424;BMP180;5768;51.476;7.210;2023-02-07T14:32:32;102564.00;;;23.30
11424;BMP180;5768;51.476;7.210;2023-02-07T14:37:43;102567.00;;;23.90
11424;BMP180;5768;51.476;7.210;2023-02-07T14:42:56;102558.00;;;24.00
11424;BMP180;5768;51.476;7.210;2023-02-07T14:48:03;102566.00;;;24.30
11424;BMP180;5768;51.476;7.210;2023-02-07T14:53:05;102554.00;;;24.70
11424;BMP180;5768;51.476;7.210;2023-02-07T14:58:24;102548.00;;;24.90
11424;BMP180;5768;51.476;7.210;2023-02-07T15:03:30;102559.00;;;24.70
11424;BMP180;5768;51.476;7.210;2023-02-07T15:08:32;102558.00;;;25.00
11424;BMP180;5768;51.476;7.210;2023-02-07T15:13:38;102549.00;;;25.00
11424;BMP180;5768;51.476;7.210;2023-02-07T15:18:47;102548.00;;;25.30
11424;BMP180;5768;51.476;7.210;2023-02-07T15:23:56;102556.00;;;25.30
11424;BMP180;5768;51.476;7.210;2023-02-07T15:29:02;102549.00;;;25.30
11424;BMP180;5768;51.476;7.210;2023-02-07T15:34:14;102554.00;;;24.90
11424;BMP180;5768;51.476;7.210;2023-02-07T15:39:19;102553.00;;;24.60
11424;BMP180;5768;51.476;7.210;2023-02-07T15:44:25;102555.00;;;24.50
11424;BMP180;5768;51.476;7.210;2023-02-07T15:49:32;102553.00;;;24.10
11424;BMP180;5768;51.476;7.210;2023-02-07T15:54:38;102545.00;;;23.40
11424;BMP180;5768;51.476;7.210;2023-02-07T15:59:44;102548.00;;;22.30
11424;BMP180;5768;51.476;7.210;2023-02-07T16:04:47;102545.00;;;20.00
11424;BMP180;5768;51.476;7.210;2023-02-07T16:09:50;102550.00;;;17.90
11424;BMP180;5768;51.476;7.210;2023-02-07T16:14:54;102533.00;;;16.10
11424;BMP180;5768;51.476;7.210;2023-02-07T16:19:57;102538.00;;;15.00
11424;BMP180;5768;51.476;7.210;2023-02-07T16:25:01;102538.00;;;14.10
11424;BMP180;5768;51.476;7.210;2023-02-07T16:30:04;102527.00;;;13.50
11424;BMP180;5768;51.476;7.210;2023-02-07T16:35:17;102538.00;;;12.90
11424;BMP180;5768;51.476;7.210;2023-02-07T16:40:20;102530.00;;;12.40
11424;BMP180;5768;51.476;7.210;2023-02-07T16:45:27;102541.00;;;11.90
11424;BMP180;5768;51.476;7.210;2023-02-07T16:50:31;102542.00;;;11.60
11424;BMP180;5768;51.476;7.210;2023-02-07T16:55:35;102542.00;;;11.20
11424;BMP180;5768;51.476;7.210;2023-02-07T17:00:38;102543.00;;;10.90
11424;BMP180;5768;51.476;7.210;2023-02-07T17:05:42;102543.00;;;10.60
11424;BMP180;5768;51.476;7.210;2023-02-07T17:10:51;102554.00;;;10.30
11424;BMP180;5768;51.476;7.210;2023-02-07T17:15:54;102547.00;;;10.10
11424;BMP180;5768;51.476;7.210;2023-02-07T17:20:59;102547.00;;;9.80
11424;BMP180;5768;51.476;7.210;2023-02-07T17:26:02;102549.00;;;9.60
11424;BMP180;5768;51.476;7.210;2023-02-07T17:31:04;102560.00;;;9.40
11424;BMP180;5768;51.476;7.210;2023-02-07T17:36:10;102545.00;;;9.10
11424;BMP180;5768;51.476;7.210;2023-02-07T17:41:15;102545.00;;;8.90
11424;BMP180;5768;51.476;7.210;2023-02-07T17:46:21;102546.00;;;8.80
11424;BMP180;5768;51.476;7.210;2023-02-07T17:51:27;102539.00;;;8.60
11424;BMP180;5768;51.476;7.210;2023-02-07T17:56:31;102549.00;;;8.40
11424;BMP180;5768;51.476;7.210;2023-02-07T18:01:34;102545.00;;;8.30
11424;BMP180;5768;51.476;7.210;2023-02-07T18:06:40;102548.00;;;8.10
11424;BMP180;5768;51.476;7.210;2023-02-07T18:11:42;102540.00;;;8.00
11424;BMP180;5768;51.476;7.210;2023-02-07T18:16:45;102534.00;;;7.80
11424;BMP180;5768;51.476;7.210;2023-02-07T18:21:49;102542.00;;;7.70
11424;BMP180;5768;51.476;7.210;2023-02-07T18:26:51;102539.00;;;7.60
11424;BMP180;5768;51.476;7.210;2023-02-07T18:31:53;102517.00;;;7.50
11424;BMP180;5768;51.476;7.210;2023-02-07T18:36:56;102532.00;;;7.40
11424;BMP180;5768;51.476;7.210;2023-02-07T18:41:59;102520.00;;;7.20
11424;BMP180;5768;51.476;7.210;2023-02-07T18:47:02;102519.00;;;7.20
11424;BMP180;5768;51.476;7.210;2023-02-07T18:52:06;102517.00;;;7.00
11424;BMP180;5768;51.476;7.210;2023-02-07T18:57:10;102506.00;;;6.90
11424;BMP180;5768;51.476;7.210;2023-02-07T19:02:12;102517.00;;;6.90
11424;BMP180;5768;51.476;7.210;2023-02-07T19:07:16;102512.00;;;6.80
11424;BMP180;5768;51.476;7.210;2023-02-07T19:12:19;102523.00;;;6.80
11424;BMP180;5768;51.476;7.210;2023-02-07T19:17:21;102512.00;;;6.70
11424;BMP180;5768;51.476;7.210;2023-02-07T19:22:24;102520.00;;;6.60
11424;BMP180;5768;51.476;7.210;2023-02-07T19:27:29;102515.00;;;6.50
11424;BMP180;5768;51.476;7.210;2023-02-07T19:32:31;102517.00;;;6.50
11424;BMP180;5768;51.476;7.210;2023-02-07T19:37:38;102513.00;;;6.30
11424;BMP180;5768;51.476;7.210;2023-02-07T19:42:40;102497.00;;;6.10
11424;BMP180;5768;51.476;7.210;2023-02-07T19:47:42;102498.00;;;6.10
11424;BMP180;5768;51.476;7.210;2023-02-07T19:52:46;102495.00;;;6.00
11424;BMP180;5768;51.476;7.210;2023-02-07T19:57:48;102498.00;;;5.90
11424;BMP180;5768;51.476;7.210;2023-02-07T20:02:50;102510.00;;;5.80
11424;BMP180;5768;51.476;7.210;2023-02-07T20:07:53;102497.00;;;5.70
11424;BMP180;5768;51.476;7.210;2023-02-07T20:12:56;102491.00;;;5.60
11424;BMP180;5768;51.476;7.210;2023-02-07T20:17:59;102487.00;;;5.50
11424;BMP180;5768;51.476;7.210;2023-02-07T20:23:02;102486.00;;;5.50
11424;BMP180;5768;51.476;7.210;2023-02-07T20:28:06;102492.00;;;5.40
11424;BMP180;5768;51.476;7.210;2023-02-07T20:33:09;102501.00;;;5.30
11424;BMP180;5768;51.476;7.210;2023-02-07T20:38:17;102486.00;;;5.30
11424;BMP180;5768;51.476;7.210;2023-02-07T20:43:19;102499.00;;;5.20
11424;BMP180;5768;51.476;7.210;2023-02-07T20:48:21;102492.00;;;5.20
11424;BMP180;5768;51.476;7.210;2023-02-07T20:53:25;102500.00;;;5.30
11424;BMP180;5768;51.476;7.210;2023-02-07T20:58:27;102497.00;;;5.30
11424;BMP180;5768;51.476;7.210;2023-02-07T21:03:34;102506.00;;;5.20
11424;BMP180;5768;51.476;7.210;2023-02-07T21:08:38;102498.00;;;5.10
11424;BMP180;5768;51.476;7.210;2023-02-07T21:13:40;102492.00;;;5.10
11424;BMP180;5768;51.476;7.210;2023-02-07T21:18:43;102498.00;;;5.10
11424;BMP180;5768;51.476;7.210;2023-02-07T21:23:47;102497.00;;;5.10
11424;BMP180;5768;51.476;7.210;2023-02-07T21:28:49;102496.00;;;5.00
11424;BMP180;5768;51.476;7.210;2023-02-07T21:33:52;102479.00;;;5.00
11424;BMP180;5768;51.476;7.210;2023-02-07T21:38:58;102478.00;;;4.90
11424;BMP180;5768;51.476;7.210;2023-02-07T21:44:04;102473.00;;;4.90
11424;BMP180;5768;51.476;7.210;2023-02-07T21:49:13;102484.00;;;4.80
11424;BMP180;5768;51.476;7.210;2023-02-07T21:54:17;102473.00;;;4.80
11424;BMP180;5768;51.476;7.210;2023-02-07T21:59:20;102478.00;;;4.70
11424;BMP180;5768;51.476;7.210;2023-02-07T22:04:23;102486.00;;;4.60
11424;BMP180;5768;51.476;7.210;2023-02-07T22:09:26;102481.00;;;4.40
11424;BMP180;5768;51.476;7.210;2023-02-07T22:14:29;102483.00;;;4.40
11424;BMP180;5768;51.476;7.210;2023-02-07T22:19:32;102480.00;;;4.40
11424;BMP180;5768;51.476;7.210;2023-02-07T22:24:35;102469.00;;;4.30
11424;BMP180;5768;51.476;7.210;2023-02-07T22:29:37;102474.00;;;4.30
11424;BMP180;5768;51.476;7.210;2023-02-07T22:34:39;102466.00;;;4.20
11424;BMP180;5768;51.476;7.210;2023-02-07T22:39:47;102466.00;;;4.10
11424;BMP180;5768;51.476;7.210;2023-02-07T22:44:50;102468.00;;;4.00
11424;BMP180;5768;51.476;7.210;2023-02-07T22:49:52;102476.00;;;4.00
11424;BMP180;5768;51.476;7.210;2023-02-07T22:54:55;102472.00;;;3.90
11424;BMP180;5768;51.476;7.210;2023-02-07T22:59:57;102475.00;;;3.90
11424;BMP180;5768;51.476;7.210;2023-02-07T23:05:00;102480.00;;;3.80
11424;BMP180;5768;51.476;7.210;2023-02-07T23:10:06;102486.00;;;3.80
11424;BMP180;5768;51.476;7.210;2023-02-07T23:15:09;102489.00;;;3.70
11424;BMP180;5768;51.476;7.210;2023-02-07T23:20:11;102489.00;;;3.70
11424;BMP180;5768;51.476;7.210;2023-02-07T23:25:15;102498.00;;;3.60
11424;BMP180;5768;51.476;7.210;2023-02-07T23:30:17;102488.00;;;3.50
11424;BMP180;5768;51.476;7.210;2023-02-07T23:35:19;102487.00;;;3.50
11424;BMP180;5768;51.476;7.210;2023-02-07T23:40:23;102492.00;;;3.50
11424;BMP180;5768;51.476;7.210;2023-02-07T23:45:25;102487.00;;;3.40
11424;BMP180;5768;51.476;7.210;2023-02-07T23:50:27;102488.00;;;3.40
11424;BMP180;5768;51.476;7.210;2023-02-07T23:55:33;102480.00;;;3.40
